sensor_id;sensor_type;location;lat;lon;timestamp;pressure;altitude;pressure_sealevel;temperature;humidity
54600;BME280;40500;51.084;16.958;2023-04-15T00:01:56;98973.72;;;9.38;100.00
54600;BME280;40500;51.084;16.958;2023-04-15T00:04:28;98972.40;;;9.41;100.00
54600;BME280;40500;51.084;16.958;2023-04-15T00:07:00;98967.61;;;9.43;100.00
54600;BME280;40500;51.084;16.958;2023-04-15T00:09:31;98960.35;;;9.46;100.00
54600;BME280;40500;51.084;16.958;2023-04-15T00:12:01;98964.31;;;9.47;100.00
54600;BME280;40500;51.084;16.958;2023-04-15T00:14:32;98961.31;;;9.48;100.00
54600;BME280;40500;51.084;16.958;2023-04-15T00:17:03;98962.86;;;9.49;100.00
54600;BME280;40500;51.084;16.958;2023-04-15T00:19:33;98963.55;;;9.49;100.00
54600;BME280;40500;51.084;16.958;2023-04-15T00:22:04;98967.00;;;9.51;100.00
54600;BME280;40500;51.084;16.958;2023-04-15T00:24:34;98960.82;;;9.53;100.00
54600;BME280;40500;51.084;16.958;2023-04-15T00:27:05;98961.76;;;9.56;100.00
54600;BME280;40500;51.084;16.958;2023-04-15T00:29:35;98958.55;;;9.57;100.00
54600;BME280;40500;51.084;16.958;2023-04-15T00:32:05;98963.71;;;9.60;100.00
54600;BME280;40500;51.084;16.958;2023-04-15T00:34:36;98962.45;;;9.61;100.00
54600;BME280;40500;51.084;16.958;2023-04-15T00:37:08;98967.46;;;9.62;100.00
54600;BME280;40500;51.084;16.958;2023-04-15T00:39:39;98963.40;;;9.63;100.00
54600;BME280;40500;51.084;16.958;2023-04-15T00:42:10;98956.89;;;9.65;100.00
54600;BME280;40500;51.084;16.958;2023-04-15T00:44:41;98962.42;;;9.66;100.00
54600;BME280;40500;51.084;16.958;2023-04-15T00:47:12;98957.98;;;9.68;100.00
54600;BME280;40500;51.084;16.958;2023-04-15T00:49:42;98965.07;;;9.71;100.00
54600;BME280;40500;51.084;16.958;2023-04-15T00:52:13;98963.63;;;9.72;100.00
54600;BME280;40500;51.084;16.958;2023-04-15T00:54:43;98962.39;;;9.73;100.00
54600;BME280;40500;51.084;16.958;2023-04-15T00:57:14;98971.11;;;9.73;100.00
54600;BME280;40500;51.084;16.958;2023-04-15T00:59:44;98970.59;;;9.73;100.00
54600;BME280;40500;51.084;16.958;2023-04-15T01:02:16;98969.72;;;9.73;100.00
54600;BME280;40500;51.084;16.958;2023-04-15T01:04:47;98968.67;;;9.73;100.00
54600;BME280;40500;51.084;16.958;2023-04-15T01:07:18;98966.91;;;9.73;100.00
54600;BME280;40500;51.084;16.958;2023-04-15T01:09:48;98971.11;;;9.73;100.00
54600;BME280;40500;51.084;16.958;2023-04-15T01:12:19;98970.06;;;9.73;100.00
54600;BME280;40500;51.084;16.958;2023-04-15T01:14:49;98969.38;;;9.73;100.00
54600;BME280;40500;51.084;16.958;2023-04-15T01:17:20;98970.92;;;9.73;100.00
54600;BME280;40500;51.084;16.958;2023-04-15T01:19:50;98965.52;;;9.73;100.00
54600;BME280;40500;51.084;16.958;2023-04-15T01:22:21;98963.54;;;9.75;100.00
54600;BME280;40500;51.084;16.958;2023-04-15T01:25:00;98961.42;;;9.75;100.00
54600;BME280;40500;51.084;16.958;2023-04-15T01:27:33;98960.91;;;9.75;100.00
54600;BME280;40500;51.084;16.958;2023-04-15T01:30:06;98967.92;;;9.75;100.00
54600;BME280;40500;51.084;16.958;2023-04-15T01:32:36;98967.03;;;9.75;100.00
54600;BME280;40500;51.084;16.958;2023-04-15T01:35:08;98969.80;;;9.76;100.00
54600;BME280;40500;51.084;16.958;2023-04-15T01:37:38;98967.31;;;9.77;100.00
54600;BME280;40500;51.084;16.958;2023-04-15T01:40:10;98971.14;;;9.77;100.00
54600;BME280;40500;51.084;16.958;2023-04-15T01:42:40;98974.24;;;9.79;100.00
54600;BME280;40500;51.084;16.958;2023-04-15T01:45:11;98978.64;;;9.78;100.00
54600;BME280;40500;51.084;16.958;2023-04-15T01:47:43;98975.98;;;9.79;100.00
54600;BME280;40500;51.084;16.958;2023-04-15T01:50:13;98978.75;;;9.79;100.00
54600;BME280;40500;51.084;16.958;2023-04-15T01:52:44;98981.88;;;9.80;100.00
54600;BME280;40500;51.084;16.958;2023-04-15T01:55:15;98979.76;;;9.81;100.00
54600;BME280;40500;51.084;16.958;2023-04-15T01:57:47;98975.90;;;9.81;100.00
54600;BME280;40500;51.084;16.958;2023-04-15T02:00:17;98971.54;;;9.81;100.00
54600;BME280;40500;51.084;16.958;2023-04-15T02:02:47;98972.20;;;9.81;100.00
54600;BME280;40500;51.084;16.958;2023-04-15T02:05:18;98977.96;;;9.82;100.00
54600;BME280;40500;51.084;16.958;2023-04-15T02:07:50;98976.85;;;9.83;100.00
54600;BME280;40500;51.084;16.958;2023-04-15T02:10:21;98980.81;;;9.85;100.00
54600;BME280;40500;51.084;16.958;2023-04-15T02:12:52;98981.67;;;9.85;100.00
54600;BME280;40500;51.084;16.958;2023-04-15T02:15:23;98984.05;;;9.88;100.00
54600;BME280;40500;51.084;16.958;2023-04-15T02:17:54;98987.48;;;9.89;100.00
54600;BME280;40500;51.084;16.958;2023-04-15T02:20:24;98989.21;;;9.89;100.00
54600;BME280;40500;51.084;16.958;2023-04-15T02:22:54;98987.33;;;9.88;100.00
54600;BME280;40500;51.084;16.958;2023-04-15T02:25:25;98984.48;;;9.85;100.00
54600;BME280;40500;51.084;16.958;2023-04-15T02:27:57;98987.80;;;9.81;100.00
54600;BME280;40500;51.084;16.958;2023-04-15T02:30:27;98993.19;;;9.77;100.00
54600;BME280;40500;51.084;16.958;2023-04-15T02:32:58;98995.27;;;9.72;100.00
54600;BME280;40500;51.084;16.958;2023-04-15T02:35:29;98996.43;;;9.68;100.00
54600;BME280;40500;51.084;16.958;2023-04-15T02:37:59;98995.03;;;9.64;100.00
54600;BME280;40500;51.084;16.958;2023-04-15T02:40:31;98997.44;;;9.60;100.00
54600;BME280;40500;51.084;16.958;2023-04-15T02:43:01;98993.38;;;9.56;100.00
54600;BME280;40500;51.084;16.958;2023-04-15T02:45:33;99002.58;;;9.53;100.00
54600;BME280;40500;51.084;16.958;2023-04-15T02:48:05;99004.78;;;9.49;100.00
54600;BME280;40500;51.084;16.958;2023-04-15T02:50:37;99004.39;;;9.45;100.00
54600;BME280;40500;51.084;16.958;2023-04-15T02:53:10;99003.98;;;9.42;100.00
54600;BME280;40500;51.084;16.958;2023-04-15T02:55:41;99009.65;;;9.40;100.00
54600;BME280;40500;51.084;16.958;2023-04-15T02:58:11;99006.39;;;9.38;100.00
54600;BME280;40500;51.084;16.958;2023-04-15T03:00:42;99007.86;;;9.36;100.00
54600;BME280;40500;51.084;16.958;2023-04-15T03:03:12;99010.61;;;9.32;100.00
54600;BME280;40500;51.084;16.958;2023-04-15T03:05:44;99015.91;;;9.30;100.00
54600;BME280;40500;51.084;16.958;2023-04-15T03:08:15;99018.79;;;9.27;100.00
54600;BME280;40500;51.084;16.958;2023-04-15T03:10:45;99023.86;;;9.27;100.00
54600;BME280;40500;51.084;16.958;2023-04-15T03:13:15;99029.14;;;9.26;100.00
54600;BME280;40500;51.084;16.958;2023-04-15T03:15:47;99033.74;;;9.24;100.00
54600;BME280;40500;51.084;16.958;2023-04-15T03:18:17;99042.79;;;9.25;100.00
54600;BME280;40500;51.084;16.958;2023-04-15T03:20:48;99053.11;;;9.25;100.00
54600;BME280;40500;51.084;16.958;2023-04-15T03:23:19;99060.60;;;9.25;100.00
54600;BME280;40500;51.084;16.958;2023-04-15T03:25:50;99056.27;;;9.24;100.00
54600;BME280;40500;51.084;16.958;2023-04-15T03:28:20;99048.88;;;9.21;100.00
54600;BME280;40500;51.084;16.958;2023-04-15T03:30:50;99053.71;;;9.17;100.00
54600;BME280;40500;51.084;16.958;2023-04-15T03:33:21;99055.44;;;9.12;100.00
54600;BME280;40500;51.084;16.958;2023-04-15T03:35:53;99062.39;;;9.07;100.00
54600;BME280;40500;51.084;16.958;2023-04-15T03:38:23;99062.00;;;9.03;100.00
54600;BME280;40500;51.084;16.958;2023-04-15T03:40:53;99062.67;;;8.99;100.00
54600;BME280;40500;51.084;16.958;2023-04-15T03:43:24;99058.44;;;8.94;100.00
54600;BME280;40500;51.084;16.958;2023-04-15T03:45:54;99070.86;;;8.93;100.00
54600;BME280;40500;51.084;16.958;2023-04-15T03:48:25;99073.77;;;8.90;100.00
54600;BME280;40500;51.084;16.958;2023-04-15T03:50:55;99080.17;;;8.86;100.00
54600;BME280;40500;51.084;16.958;2023-04-15T03:53:25;99086.42;;;8.81;100.00
54600;BME280;40500;51.084;16.958;2023-04-15T03:55:56;99091.14;;;8.76;100.00
54600;BME280;40500;51.084;16.958;2023-04-15T03:58:26;99093.06;;;8.69;100.00
54600;BME280;40500;51.084;16.958;2023-04-15T04:00:56;99096.34;;;8.64;100.00
54600;BME280;40500;51.084;16.958;2023-04-15T04:03:27;99105.96;;;8.58;100.00
54600;BME280;40500;51.084;16.958;2023-04-15T04:05:58;99109.09;;;8.52;100.00
54600;BME280;40500;51.084;16.958;2023-04-15T04:08:28;99109.95;;;8.46;100.00
54600;BME280;40500;51.084;16.958;2023-04-15T04:10:58;99107.63;;;8.41;100.00
54600;BME280;40500;51.084;16.958;2023-04-15T04:13:29;99118.37;;;8.37;100.00
54600;BME280;40500;51.084;16.958;2023-04-15T04:15:59;99123.86;;;8.33;100.00
54600;BME280;40500;51.084;16.958;2023-04-15T04:18:30;99123.69;;;8.27;100.00
54600;BME280;40500;51.084;16.958;2023-04-15T04:21:01;99120.52;;;8.21;100.00
54600;BME280;40500;51.084;16.958;2023-04-15T04:23:31;99133.23;;;8.16;100.00
54600;BME280;40500;51.084;16.958;2023-04-15T04:26:02;99135.42;;;8.12;100.00
54600;BME280;40500;51.084;16.958;2023-04-15T04:28:32;99136.17;;;8.09;100.00
54600;BME280;40500;51.084;16.958;2023-04-15T04:31:03;99138.03;;;8.05;100.00
54600;BME280;40500;51.084;16.958;2023-04-15T04:33:33;99142.00;;;8.00;100.00
54600;BME280;40500;51.084;16.958;2023-04-15T04:36:05;99149.96;;;7.96;100.00
54600;BME280;40500;51.084;16.958;2023-04-15T04:38:36;99164.85;;;7.92;100.00
54600;BME280;40500;51.084;16.958;2023-04-15T04:41:06;99164.57;;;7.90;100.00
54600;BME280;40500;51.084;16.958;2023-04-15T04:43:38;99167.94;;;7.88;100.00
54600;BME280;40500;51.084;16.958;2023-04-15T04:46:09;99174.64;;;7.84;100.00
54600;BME280;40500;51.084;16.958;2023-04-15T04:48:40;99178.48;;;7.84;100.00
54600;BME280;40500;51.084;16.958;2023-04-15T04:51:11;99184.78;;;7.83;100.00
54600;BME280;40500;51.084;16.958;2023-04-15T04:53:42;99180.42;;;7.83;100.00
54600;BME280;40500;51.084;16.958;2023-04-15T04:56:12;99184.08;;;7.83;100.00
54600;BME280;40500;51.084;16.958;2023-04-15T04:58:42;99183.52;;;7.85;100.00
54600;BME280;40500;51.084;16.958;2023-04-15T05:01:13;99189.75;;;7.87;100.00
54600;BME280;40500;51.084;16.958;2023-04-15T05:03:43;99188.73;;;7.85;100.00
54600;BME280;40500;51.084;16.958;2023-04-15T05:06:14;99188.90;;;7.86;100.00
54600;BME280;40500;51.084;16.958;2023-04-15T05:08:44;99189.58;;;7.86;100.00
54600;BME280;40500;51.084;16.958;2023-04-15T05:11:15;99194.10;;;7.86;100.00
54600;BME280;40500;51.084;16.958;2023-04-15T05:13:45;99188.95;;;7.83;100.00
54600;BME280;40500;51.084;16.958;2023-04-15T05:16:16;99188.13;;;7.82;100.00
54600;BME280;40500;51.084;16.958;2023-04-15T05:18:48;99192.52;;;7.81;100.00
54600;BME280;40500;51.084;16.958;2023-04-15T05:21:18;99194.11;;;7.79;100.00
54600;BME280;40500;51.084;16.958;2023-04-15T05:23:49;99196.61;;;7.77;100.00
54600;BME280;40500;51.084;16.958;2023-04-15T05:26:19;99194.73;;;7.75;100.00
54600;BME280;40500;51.084;16.958;2023-04-15T05:28:50;99194.80;;;7.72;100.00
54600;BME280;40500;51.084;16.958;2023-04-15T05:31:20;99195.69;;;7.71;100.00
54600;BME280;40500;51.084;16.958;2023-04-15T05:33:51;99196.46;;;7.68;100.00
54600;BME280;40500;51.084;16.958;2023-04-15T05:36:21;99203.39;;;7.70;100.00
54600;BME280;40500;51.084;16.958;2023-04-15T05:38:52;99209.76;;;7.73;100.00
54600;BME280;40500;51.084;16.958;2023-04-15T05:41:22;99212.30;;;7.77;100.00
54600;BME280;40500;51.084;16.958;2023-04-15T05:43:52;99220.10;;;7.78;100.00
54600;BME280;40500;51.084;16.958;2023-04-15T05:46:23;99224.25;;;7.80;100.00
54600;BME280;40500;51.084;16.958;2023-04-15T05:48:53;99220.67;;;7.83;100.00
54600;BME280;40500;51.084;16.958;2023-04-15T05:51:26;99218.86;;;7.87;100.00
54600;BME280;40500;51.084;16.958;2023-04-15T05:53:56;99219.88;;;7.88;100.00
54600;BME280;40500;51.084;16.958;2023-04-15T05:56:27;99232.34;;;7.91;100.00
54600;BME280;40500;51.084;16.958;2023-04-15T05:58:57;99235.07;;;7.94;100.00
54600;BME280;40500;51.084;16.958;2023-04-15T06:01:28;99237.44;;;7.97;100.00
54600;BME280;40500;51.084;16.958;2023-04-15T06:03:58;99233.96;;;8.04;100.00
54600;BME280;40500;51.084;16.958;2023-04-15T06:06:29;99234.84;;;8.10;100.00
54600;BME280;40500;51.084;16.958;2023-04-15T06:09:00;99236.14;;;8.14;100.00
54600;BME280;40500;51.084;16.958;2023-04-15T06:11:31;99240.48;;;8.15;100.00
54600;BME280;40500;51.084;16.958;2023-04-15T06:14:01;99248.45;;;8.17;100.00
54600;BME280;40500;51.084;16.958;2023-04-15T06:16:32;99250.14;;;8.19;100.00
54600;BME280;40500;51.084;16.958;2023-04-15T06:19:02;99254.48;;;8.20;100.00
54600;BME280;40500;51.084;16.958;2023-04-15T06:21:32;99248.84;;;8.15;100.00
54600;BME280;40500;51.084;16.958;2023-04-15T06:24:03;99256.82;;;8.17;100.00
54600;BME280;40500;51.084;16.958;2023-04-15T06:26:33;99262.02;;;8.18;100.00
54600;BME280;40500;51.084;16.958;2023-04-15T06:29:04;99261.79;;;8.21;100.00
54600;BME280;40500;51.084;16.958;2023-04-15T06:31:34;99264.86;;;8.24;100.00
54600;BME280;40500;51.084;16.958;2023-04-15T06:34:05;99268.61;;;8.27;100.00
54600;BME280;40500;51.084;16.958;2023-04-15T06:36:35;99267.34;;;8.29;100.00
54600;BME280;40500;51.084;16.958;2023-04-15T06:39:06;99265.85;;;8.33;100.00
54600;BME280;40500;51.084;16.958;2023-04-15T06:41:36;99270.50;;;8.36;100.00
54600;BME280;40500;51.084;16.958;2023-04-15T06:44:07;99269.16;;;8.41;100.00
54600;BME280;40500;51.084;16.958;2023-04-15T06:46:37;99270.09;;;8.46;100.00
54600;BME280;40500;51.084;16.958;2023-04-15T06:49:08;99266.20;;;8.48;100.00
54600;BME280;40500;51.084;16.958;2023-04-15T06:51:39;99274.45;;;8.46;100.00
54600;BME280;40500;51.084;16.958;2023-04-15T06:54:10;99273.20;;;8.48;100.00
54600;BME280;40500;51.084;16.958;2023-04-15T06:56:40;99269.69;;;8.55;100.00
54600;BME280;40500;51.084;16.958;2023-04-15T06:59:11;99275.04;;;8.64;100.00
54600;BME280;40500;51.084;16.958;2023-04-15T07:01:42;99275.98;;;8.68;100.00
54600;BME280;40500;51.084;16.958;2023-04-15T07:04:12;99279.02;;;8.73;100.00
54600;BME280;40500;51.084;16.958;2023-04-15T07:06:43;99279.05;;;8.78;100.00
54600;BME280;40500;51.084;16.958;2023-04-15T07:09:14;99277.15;;;8.83;100.00
54600;BME280;40500;51.084;16.958;2023-04-15T07:11:44;99280.42;;;8.85;100.00
54600;BME280;40500;51.084;16.958;2023-04-15T07:14:14;99284.33;;;8.88;100.00
54600;BME280;40500;51.084;16.958;2023-04-15T07:16:45;99287.27;;;8.96;100.00
54600;BME280;40500;51.084;16.958;2023-04-15T07:19:15;99290.41;;;9.02;100.00
54600;BME280;40500;51.084;16.958;2023-04-15T07:21:45;99287.23;;;9.10;100.00
54600;BME280;40500;51.084;16.958;2023-04-15T07:24:16;99288.98;;;9.17;100.00
54600;BME280;40500;51.084;16.958;2023-04-15T07:26:48;99289.66;;;9.23;100.00
54600;BME280;40500;51.084;16.958;2023-04-15T07:29:19;99292.80;;;9.30;100.00
54600;BME280;40500;51.084;16.958;2023-04-15T07:31:49;99293.34;;;9.29;100.00
54600;BME280;40500;51.084;16.958;2023-04-15T07:34:20;99296.17;;;9.28;100.00
54600;BME280;40500;51.084;16.958;2023-04-15T07:36:50;99300.20;;;9.28;100.00
54600;BME280;40500;51.084;16.958;2023-04-15T07:39:20;99303.23;;;9.32;100.00
54600;BME280;40500;51.084;16.958;2023-04-15T07:41:51;99304.27;;;9.44;100.00
54600;BME280;40500;51.084;16.958;2023-04-15T07:44:21;99309.17;;;9.56;100.00
54600;BME280;40500;51.084;16.958;2023-04-15T07:46:52;99304.06;;;9.63;100.00
54600;BME280;40500;51.084;16.958;2023-04-15T07:49:22;99306.20;;;9.68;100.00
54600;BME280;40500;51.084;16.958;2023-04-15T07:51:53;99303.27;;;9.66;100.00
54600;BME280;40500;51.084;16.958;2023-04-15T07:54:25;99303.62;;;9.66;100.00
54600;BME280;40500;51.084;16.958;2023-04-15T07:56:56;99306.00;;;9.75;100.00
54600;BME280;40500;51.084;16.958;2023-04-15T07:59:27;99305.08;;;9.87;100.00
54600;BME280;40500;51.084;16.958;2023-04-15T08:01:58;99304.88;;;10.00;100.00
54600;BME280;40500;51.084;16.958;2023-04-15T08:04:28;99298.41;;;10.10;100.00
54600;BME280;40500;51.084;16.958;2023-04-15T08:06:59;99305.16;;;10.19;100.00
54600;BME280;40500;51.084;16.958;2023-04-15T08:09:30;99309.52;;;10.25;100.00
54600;BME280;40500;51.084;16.958;2023-04-15T08:12:00;99309.77;;;10.27;100.00
54600;BME280;40500;51.084;16.958;2023-04-15T08:14:30;99312.08;;;10.33;100.00
54600;BME280;40500;51.084;16.958;2023-04-15T08:17:01;99312.69;;;10.41;100.00
54600;BME280;40500;51.084;16.958;2023-04-15T08:19:32;99314.35;;;10.49;100.00
54600;BME280;40500;51.084;16.958;2023-04-15T08:22:02;99318.24;;;10.53;100.00
54600;BME280;40500;51.084;16.958;2023-04-15T08:24:38;99322.36;;;10.56;100.00
54600;BME280;40500;51.084;16.958;2023-04-15T08:27:09;99328.09;;;10.68;100.00
54600;BME280;40500;51.084;16.958;2023-04-15T08:29:39;99331.44;;;10.88;100.00
54600;BME280;40500;51.084;16.958;2023-04-15T08:32:10;99331.66;;;11.12;100.00
54600;BME280;40500;51.084;16.958;2023-04-15T08:34:40;99334.74;;;11.28;100.00
54600;BME280;40500;51.084;16.958;2023-04-15T08:37:10;99332.75;;;11.40;100.00
54600;BME280;40500;51.084;16.958;2023-04-15T08:39:41;99338.86;;;11.45;100.00
54600;BME280;40500;51.084;16.958;2023-04-15T08:42:18;99332.52;;;11.51;100.00
54600;BME280;40500;51.084;16.958;2023-04-15T08:44:53;99335.23;;;11.59;100.00
54600;BME280;40500;51.084;16.958;2023-04-15T08:47:25;99339.58;;;11.55;100.00
54600;BME280;40500;51.084;16.958;2023-04-15T08:49:59;99342.02;;;11.65;100.00
54600;BME280;40500;51.084;16.958;2023-04-15T08:52:32;99339.59;;;11.74;100.00
54600;BME280;40500;51.084;16.958;2023-04-15T08:55:03;99344.73;;;11.76;100.00
54600;BME280;40500;51.084;16.958;2023-04-15T08:57:34;99354.11;;;11.79;100.00
54600;BME280;40500;51.084;16.958;2023-04-15T09:00:06;99357.05;;;11.75;100.00
54600;BME280;40500;51.084;16.958;2023-04-15T09:02:37;99356.98;;;11.82;100.00
54600;BME280;40500;51.084;16.958;2023-04-15T09:05:10;99357.33;;;11.97;100.00
54600;BME280;40500;51.084;16.958;2023-04-15T09:07:41;99361.14;;;12.12;100.00
54600;BME280;40500;51.084;16.958;2023-04-15T09:10:12;99355.26;;;12.09;100.00
54600;BME280;40500;51.084;16.958;2023-04-15T09:12:42;99355.20;;;12.01;100.00
54600;BME280;40500;51.084;16.958;2023-04-15T09:15:15;99359.81;;;11.96;100.00
54600;BME280;40500;51.084;16.958;2023-04-15T09:17:46;99358.13;;;11.89;100.00
54600;BME280;40500;51.084;16.958;2023-04-15T09:20:17;99353.36;;;11.85;100.00
54600;BME280;40500;51.084;16.958;2023-04-15T09:22:49;99355.02;;;11.87;100.00
54600;BME280;40500;51.084;16.958;2023-04-15T09:25:30;99352.22;;;11.93;100.00
54600;BME280;40500;51.084;16.958;2023-04-15T09:28:03;99351.46;;;12.03;100.00
54600;BME280;40500;51.084;16.958;2023-04-15T09:30:34;99356.21;;;12.08;100.00
54600;BME280;40500;51.084;16.958;2023-04-15T09:33:05;99361.08;;;12.04;100.00
54600;BME280;40500;51.084;16.958;2023-04-15T09:35:37;99358.32;;;11.89;100.00
54600;BME280;40500;51.084;16.958;2023-04-15T09:38:08;99362.89;;;11.78;100.00
54600;BME280;40500;51.084;16.958;2023-04-15T09:40:42;99359.23;;;11.78;100.00
54600;BME280;40500;51.084;16.958;2023-04-15T09:43:12;99355.85;;;11.79;100.00
54600;BME280;40500;51.084;16.958;2023-04-15T09:45:50;99362.65;;;11.76;100.00
54600;BME280;40500;51.084;16.958;2023-04-15T09:48:24;99361.67;;;11.74;100.00
54600;BME280;40500;51.084;16.958;2023-04-15T09:50:59;99368.08;;;11.71;100.00
54600;BME280;40500;51.084;16.958;2023-04-15T09:53:34;99371.80;;;11.70;100.00
54600;BME280;40500;51.084;16.958;2023-04-15T09:56:07;99369.27;;;11.67;100.00
54600;BME280;40500;51.084;16.958;2023-04-15T09:58:39;99374.89;;;11.67;100.00
54600;BME280;40500;51.084;16.958;2023-04-15T10:01:11;99378.91;;;11.67;100.00
54600;BME280;40500;51.084;16.958;2023-04-15T10:03:42;99375.64;;;11.66;100.00
54600;BME280;40500;51.084;16.958;2023-04-15T10:06:18;99380.32;;;11.72;100.00
54600;BME280;40500;51.084;16.958;2023-04-15T10:08:49;99378.18;;;11.78;100.00
54600;BME280;40500;51.084;16.958;2023-04-15T10:11:21;99376.53;;;11.80;100.00
54600;BME280;40500;51.084;16.958;2023-04-15T10:13:52;99370.77;;;11.89;100.00
54600;BME280;40500;51.084;16.958;2023-04-15T10:16:26;99372.00;;;12.13;100.00
54600;BME280;40500;51.084;16.958;2023-04-15T10:19:05;99373.73;;;12.44;100.00
54600;BME280;40500;51.084;16.958;2023-04-15T10:21:38;99379.63;;;12.63;100.00
54600;BME280;40500;51.084;16.958;2023-04-15T10:24:08;99381.02;;;12.72;100.00
54600;BME280;40500;51.084;16.958;2023-04-15T10:26:39;99374.58;;;12.84;100.00
54600;BME280;40500;51.084;16.958;2023-04-15T10:29:11;99374.85;;;12.86;100.00
54600;BME280;40500;51.084;16.958;2023-04-15T10:31:41;99376.64;;;12.84;100.00
54600;BME280;40500;51.084;16.958;2023-04-15T10:34:13;99379.02;;;12.91;100.00
54600;BME280;40500;51.084;16.958;2023-04-15T10:36:44;99382.13;;;13.00;100.00
54600;BME280;40500;51.084;16.958;2023-04-15T10:39:38;99381.37;;;13.02;100.00
54600;BME280;40500;51.084;16.958;2023-04-15T10:42:11;99381.60;;;13.01;100.00
54600;BME280;40500;51.084;16.958;2023-04-15T10:44:44;99385.52;;;13.12;100.00
54600;BME280;40500;51.084;16.958;2023-04-15T10:47:19;99379.66;;;13.21;100.00
54600;BME280;40500;51.084;16.958;2023-04-15T10:49:51;99381.36;;;13.10;100.00
54600;BME280;40500;51.084;16.958;2023-04-15T10:52:27;99387.55;;;12.97;100.00
54600;BME280;40500;51.084;16.958;2023-04-15T10:55:13;99387.67;;;12.90;100.00
54600;BME280;40500;51.084;16.958;2023-04-15T10:57:46;99394.58;;;12.97;100.00
54600;BME280;40500;51.084;16.958;2023-04-15T11:00:23;99397.52;;;13.02;100.00
54600;BME280;40500;51.084;16.958;2023-04-15T11:02:57;99395.83;;;13.05;100.00
54600;BME280;40500;51.084;16.958;2023-04-15T11:05:49;99398.35;;;13.12;100.00
54600;BME280;40500;51.084;16.958;2023-04-15T11:08:51;99405.70;;;13.13;100.00
54600;BME280;40500;51.084;16.958;2023-04-15T11:11:22;99409.20;;;13.30;100.00
54600;BME280;40500;51.084;16.958;2023-04-15T11:13:52;99402.84;;;13.55;100.00
54600;BME280;40500;51.084;16.958;2023-04-15T11:16:26;99404.62;;;13.75;100.00
54600;BME280;40500;51.084;16.958;2023-04-15T11:18:57;99407.50;;;13.85;100.00
54600;BME280;40500;51.084;16.958;2023-04-15T11:21:27;99409.11;;;14.00;100.00
54600;BME280;40500;51.084;16.958;2023-04-15T11:23:58;99406.27;;;14.23;100.00
54600;BME280;40500;51.084;16.958;2023-04-15T11:26:31;99403.77;;;14.42;100.00
54600;BME280;40500;51.084;16.958;2023-04-15T11:29:01;99403.84;;;14.48;100.00
54600;BME280;40500;51.084;16.958;2023-04-15T11:31:33;99408.77;;;14.56;100.00
54600;BME280;40500;51.084;16.958;2023-04-15T11:34:04;99405.28;;;14.74;100.00
54600;BME280;40500;51.084;16.958;2023-04-15T11:36:35;99408.63;;;14.95;100.00
54600;BME280;40500;51.084;16.958;2023-04-15T11:39:07;99410.20;;;15.13;100.00
54600;BME280;40500;51.084;16.958;2023-04-15T11:41:38;99408.96;;;15.24;100.00
54600;BME280;40500;51.084;16.958;2023-04-15T11:44:17;99414.15;;;15.29;100.00
54600;BME280;40500;51.084;16.958;2023-04-15T11:46:46;99411.29;;;15.30;100.00
54600;BME280;40500;51.084;16.958;2023-04-15T11:49:27;99412.04;;;15.33;100.00
54600;BME280;40500;51.084;16.958;2023-04-15T11:51:59;99414.92;;;15.52;100.00
54600;BME280;40500;51.084;16.958;2023-04-15T11:54:29;99408.87;;;15.77;100.00
54600;BME280;40500;51.084;16.958;2023-04-15T11:57:00;99414.09;;;15.89;100.00
54600;BME280;40500;51.084;16.958;2023-04-15T11:59:43;99417.77;;;15.99;100.00
54600;BME280;40500;51.084;16.958;2023-04-15T12:02:14;99414.41;;;16.12;100.00
54600;BME280;40500;51.084;16.958;2023-04-15T12:04:45;99418.09;;;16.19;100.00
54600;BME280;40500;51.084;16.958;2023-04-15T12:07:16;99423.06;;;16.29;100.00
54600;BME280;40500;51.084;16.958;2023-04-15T12:09:55;99426.38;;;16.48;100.00
54600;BME280;40500;51.084;16.958;2023-04-15T12:12:28;99429.80;;;16.66;100.00
54600;BME280;40500;51.084;16.958;2023-04-15T12:14:59;99431.95;;;16.66;100.00
54600;BME280;40500;51.084;16.958;2023-04-15T12:17:29;99430.88;;;16.72;100.00
54600;BME280;40500;51.084;16.958;2023-04-15T12:20:25;99433.57;;;16.84;100.00
54600;BME280;40500;51.084;16.958;2023-04-15T12:23:06;99437.09;;;17.39;100.00
54600;BME280;40500;51.084;16.958;2023-04-15T12:25:36;99426.48;;;19.20;100.00
54600;BME280;40500;51.084;16.958;2023-04-15T12:28:12;99417.80;;;21.38;100.00
54600;BME280;40500;51.084;16.958;2023-04-15T12:30:50;99414.29;;;22.47;100.00
54600;BME280;40500;51.084;16.958;2023-04-15T12:33:21;99422.04;;;21.92;100.00
54600;BME280;40500;51.084;16.958;2023-04-15T12:35:52;99425.91;;;21.20;100.00
54600;BME280;40500;51.084;16.958;2023-04-15T12:38:22;99428.51;;;20.46;100.00
54600;BME280;40500;51.084;16.958;2023-04-15T12:40:53;99430.20;;;19.85;100.00
54600;BME280;40500;51.084;16.958;2023-04-15T12:43:23;99429.48;;;19.38;100.00
54600;BME280;40500;51.084;16.958;2023-04-15T12:45:54;99424.84;;;19.95;100.00
54600;BME280;40500;51.084;16.958;2023-04-15T12:48:25;99427.44;;;20.24;100.00
54600;BME280;40500;51.084;16.958;2023-04-15T12:50:55;99425.56;;;21.66;100.00
54600;BME280;40500;51.084;16.958;2023-04-15T12:53:26;99422.84;;;23.02;100.00
54600;BME280;40500;51.084;16.958;2023-04-15T12:55:56;99423.42;;;23.73;100.00
54600;BME280;40500;51.084;16.958;2023-04-15T12:58:27;99417.34;;;24.59;100.00
54600;BME280;40500;51.084;16.958;2023-04-15T13:00:57;99417.64;;;25.40;100.00
54600;BME280;40500;51.084;16.958;2023-04-15T13:03:27;99417.52;;;24.83;100.00
54600;BME280;40500;51.084;16.958;2023-04-15T13:05:58;99417.55;;;24.78;100.00
54600;BME280;40500;51.084;16.958;2023-04-15T13:08:30;99420.85;;;25.56;100.00